createdAt,value
2019-03-29T00:00:34.784Z,71.40
2019-03-29T00:03:03.917Z,72.20
2019-03-29T00:05:33.118Z,72.40
2019-03-29T00:08:01.943Z,72.80
2019-03-29T00:10:31.102Z,72.10
2019-03-29T00:13:00.314Z,71.50
2019-03-29T00:15:29.091Z,73.70
2019-03-29T00:17:58.184Z,72.10
2019-03-29T00:20:27.496Z,72.10
2019-03-29T00:22:57.029Z,73.70
2019-03-29T00:25:25.916Z,72.20
2019-03-29T00:27:54.628Z,73.20
2019-03-29T00:30:23.682Z,74.30
2019-03-29T00:32:52.436Z,74.00
2019-03-29T00:35:21.556Z,73.30
2019-03-29T00:37:53.694Z,73.40
2019-03-29T00:40:21.122Z,73.40
2019-03-29T00:42:49.863Z,73.60
2019-03-29T00:45:19.109Z,71.70
2019-03-29T00:47:48.627Z,74.00
2019-03-29T00:50:17.673Z,72.60
2019-03-29T00:52:46.379Z,74.00
2019-03-29T00:55:15.206Z,73.20
2019-03-29T00:57:44.244Z,72.30
2019-03-29T01:00:13.446Z,72.80
2019-03-29T01:02:42.641Z,71.90
2019-03-29T01:05:11.425Z,73.50
2019-03-29T01:07:40.623Z,73.40
2019-03-29T01:10:09.622Z,74.00
2019-03-29T01:12:38.417Z,74.20
2019-03-29T01:15:09.388Z,71.80
2019-03-29T01:17:38.759Z,72.90
2019-03-29T01:20:07.958Z,71.80
2019-03-29T01:22:36.958Z,72.40
2019-03-29T01:25:08.245Z,71.90
2019-03-29T01:27:37.464Z,72.80
2019-03-29T01:30:07.586Z,73.10
2019-03-29T01:32:36.516Z,72.90
2019-03-29T01:35:09.080Z,73.70
2019-03-29T01:37:38.687Z,72.90
2019-03-29T01:40:09.150Z,73.80
2019-03-29T01:42:38.733Z,74.10
2019-03-29T01:45:09.112Z,74.00
2019-03-29T01:47:37.890Z,74.20
2019-03-29T01:50:08.168Z,73.50
2019-03-29T01:52:37.406Z,74.60
2019-03-29T01:55:07.130Z,73.90
2019-03-29T01:57:36.285Z,74.50
2019-03-29T02:00:06.908Z,74.10
2019-03-29T02:02:36.010Z,74.50
2019-03-29T02:05:07.363Z,74.40
2019-03-29T02:07:37.344Z,75.00
2019-03-29T02:10:09.962Z,75.20
2019-03-29T02:12:38.745Z,74.40
2019-03-29T02:15:08.468Z,74.70
2019-03-29T02:17:37.957Z,74.50
2019-03-29T02:20:08.695Z,73.10
2019-03-29T02:22:37.686Z,74.50
2019-03-29T02:25:08.315Z,74.30
2019-03-29T02:27:37.925Z,72.70
2019-03-29T02:30:10.187Z,74.90
2019-03-29T02:32:39.600Z,74.10
2019-03-29T02:35:11.452Z,73.80
2019-03-29T02:37:40.367Z,74.50
2019-03-29T02:40:09.966Z,73.90
2019-03-29T02:42:38.739Z,75.30
2019-03-29T02:45:07.693Z,74.10
2019-03-29T02:47:36.847Z,74.60
2019-03-29T02:50:08.626Z,74.80
2019-03-29T02:52:38.110Z,74.10
2019-03-29T02:55:07.965Z,76.00
2019-03-29T02:57:36.922Z,76.50
2019-03-29T03:00:08.444Z,76.80
2019-03-29T03:02:37.573Z,77.30
2019-03-29T03:05:06.976Z,76.90
2019-03-29T03:07:35.806Z,76.80
2019-03-29T03:10:08.249Z,76.30
2019-03-29T03:12:37.036Z,75.40
2019-03-29T03:15:08.688Z,76.10
2019-03-29T03:17:38.911Z,77.20
2019-03-29T03:20:14.634Z,77.50
2019-03-29T03:22:41.707Z,76.50
2019-03-29T03:25:11.141Z,78.10
2019-03-29T03:27:39.857Z,77.70
2019-03-29T03:30:10.638Z,78.10
2019-03-29T03:32:39.305Z,79.10
2019-03-29T03:35:10.977Z,77.90
2019-03-29T03:37:39.689Z,78.10
2019-03-29T03:40:09.585Z,78.70
2019-03-29T03:42:38.784Z,78.30
2019-03-29T03:45:09.707Z,79.00
2019-03-29T03:47:39.511Z,79.70
2019-03-29T03:50:10.252Z,79.10
2019-03-29T03:52:39.032Z,80.30
2019-03-29T03:55:08.158Z,80.20
2019-03-29T03:57:38.703Z,80.00
2019-03-29T04:00:09.216Z,80.40
2019-03-29T04:02:38.312Z,80.90
2019-03-29T04:05:07.412Z,81.20
2019-03-29T04:07:36.127Z,80.60
2019-03-29T04:10:07.311Z,79.80
2019-03-29T04:12:36.047Z,81.30
2019-03-29T04:15:05.596Z,81.50
2019-03-29T04:17:34.623Z,82.10
2019-03-29T04:20:03.886Z,80.20
2019-03-29T04:22:32.696Z,80.70
2019-03-29T04:25:01.821Z,80.60
2019-03-29T04:27:30.911Z,82.30
2019-03-29T04:30:00.004Z,82.20
2019-03-29T04:32:29.116Z,83.10
2019-03-29T04:34:57.842Z,82.50
2019-03-29T04:37:26.997Z,82.90
2019-03-29T04:40:07.815Z,83.40
2019-03-29T04:42:27.129Z,82.30
2019-03-29T04:44:59.387Z,82.60
2019-03-29T04:47:26.259Z,83.30
2019-03-29T04:49:55.338Z,82.40
2019-03-29T04:52:24.640Z,84.30
2019-03-29T04:54:53.843Z,81.90
2019-03-29T04:57:22.927Z,84.10
2019-03-29T04:59:51.712Z,84.50
2019-03-29T05:02:20.821Z,82.40
2019-03-29T05:04:49.910Z,83.00
2019-03-29T05:07:18.686Z,84.50
2019-03-29T05:09:47.812Z,85.10
2019-03-29T05:12:16.895Z,81.60
2019-03-29T05:14:45.998Z,84.50
2019-03-29T05:17:14.718Z,82.50
2019-03-29T05:19:44.688Z,82.40
2019-03-29T05:22:14.403Z,85.50
2019-03-29T05:24:43.511Z,83.70
2019-03-29T05:27:12.600Z,85.20
2019-03-29T05:29:41.307Z,84.10
2019-03-29T05:32:10.493Z,84.10
2019-03-29T05:34:39.311Z,88.70
2019-03-29T05:37:08.069Z,88.20
2019-03-29T05:39:36.996Z,86.10
2019-03-29T05:42:05.699Z,86.60
2019-03-29T05:44:34.845Z,86.80
2019-03-29T05:47:03.565Z,87.40
2019-03-29T05:49:32.723Z,86.70
2019-03-29T05:52:01.935Z,83.90
2019-03-29T05:54:31.031Z,87.90
2019-03-29T05:57:00.118Z,87.80
2019-03-29T05:59:28.861Z,88.50
2019-03-29T06:01:57.694Z,88.80
2019-03-29T06:04:26.794Z,90.00
2019-03-29T06:06:55.915Z,88.90
2019-03-29T06:09:24.760Z,89.00
2019-03-29T06:11:53.507Z,88.10
2019-03-29T06:14:22.576Z,88.50
2019-03-29T06:16:51.667Z,89.30
2019-03-29T06:19:20.497Z,89.10
2019-03-29T06:21:49.280Z,88.80
2019-03-29T06:24:18.064Z,88.80
2019-03-29T06:26:46.885Z,89.00
2019-03-29T06:29:15.662Z,88.30
2019-03-29T06:31:44.433Z,88.40
2019-03-29T06:34:13.597Z,87.60
2019-03-29T06:36:43.519Z,88.10
2019-03-29T06:39:12.813Z,89.70
2019-03-29T06:41:42.010Z,89.40
2019-03-29T06:44:10.802Z,89.40
2019-03-29T06:46:39.907Z,89.00
2019-03-29T06:49:09.105Z,89.30
2019-03-29T06:51:38.217Z,89.40
2019-03-29T06:54:06.974Z,89.10
2019-03-29T06:56:36.201Z,87.00
2019-03-29T06:59:04.982Z,87.20
2019-03-29T07:01:33.773Z,86.40
2019-03-29T07:04:02.971Z,85.30
2019-03-29T07:06:31.763Z,84.20
2019-03-29T07:09:00.854Z,83.00
2019-03-29T07:11:29.557Z,81.10
2019-03-29T07:13:58.744Z,80.00
2019-03-29T07:16:27.501Z,78.20
2019-03-29T07:18:56.512Z,77.10
2019-03-29T07:21:25.626Z,77.50
2019-03-29T07:23:54.842Z,74.00
2019-03-29T07:26:23.652Z,72.50
2019-03-29T07:28:52.360Z,72.40
2019-03-29T07:31:21.147Z,74.30
2019-03-29T07:33:49.978Z,75.90
2019-03-29T07:36:18.758Z,69.10
2019-03-29T07:38:47.862Z,67.60
2019-03-29T07:41:30.757Z,65.60
2019-03-29T07:43:47.382Z,65.50
2019-03-29T07:46:16.482Z,61.60
2019-03-29T07:48:45.390Z,58.60
2019-03-29T07:51:14.587Z,56.40
2019-03-29T07:53:44.943Z,56.20
2019-03-29T07:56:13.708Z,54.30
2019-03-29T07:58:42.894Z,59.40
2019-03-29T08:01:11.982Z,58.30
2019-03-29T08:03:41.082Z,53.10
2019-03-29T08:06:10.199Z,53.30
2019-03-29T08:08:39.273Z,52.60
2019-03-29T08:11:08.101Z,51.40
2019-03-29T08:13:36.896Z,51.30
2019-03-29T08:16:06.735Z,54.10
2019-03-29T08:18:35.556Z,48.60
2019-03-29T08:21:04.699Z,47.80
2019-03-29T08:23:33.406Z,47.10
2019-03-29T08:26:03.127Z,46.80
2019-03-29T08:28:31.838Z,47.40
2019-03-29T08:31:13.741Z,46.00
2019-03-29T08:33:42.884Z,48.00
2019-03-29T08:38:52.217Z,47.70
2019-03-29T08:41:21.386Z,46.80
2019-03-29T08:43:50.493Z,43.40
2019-03-29T08:46:19.683Z,44.60
2019-03-29T08:48:48.894Z,44.20
2019-03-29T08:51:17.972Z,43.00
2019-03-29T08:53:46.796Z,43.70
2019-03-29T08:56:15.588Z,43.60
2019-03-29T08:58:46.464Z,46.40
2019-03-29T09:01:15.078Z,44.60
2019-03-29T09:03:43.900Z,42.50
2019-03-29T09:06:12.769Z,45.50
2019-03-29T09:08:42.371Z,44.70
2019-03-29T09:11:11.200Z,43.60
2019-03-29T09:13:39.988Z,42.60
2019-03-29T09:16:09.043Z,41.90
2019-03-29T09:18:38.170Z,43.20
2019-03-29T09:21:07.237Z,43.80
2019-03-29T09:23:36.339Z,43.20
2019-03-29T09:26:05.166Z,42.70
2019-03-29T09:28:33.884Z,41.70
2019-03-29T09:31:03.021Z,42.60
2019-03-29T09:33:31.808Z,41.80
2019-03-29T09:36:00.896Z,40.40
2019-03-29T09:38:29.655Z,40.50
2019-03-29T09:40:59.289Z,42.60
2019-03-29T09:43:28.208Z,40.40
2019-03-29T09:45:57.275Z,42.10
2019-03-29T09:48:26.003Z,40.80
2019-03-29T09:50:55.065Z,40.00
2019-03-29T09:53:23.896Z,40.50
2019-03-29T09:55:53.508Z,41.50
2019-03-29T09:58:22.574Z,40.40
2019-03-29T10:00:51.393Z,40.20
2019-03-29T10:03:20.440Z,41.30
2019-03-29T10:05:49.535Z,42.20
2019-03-29T10:08:18.250Z,41.30
2019-03-29T10:10:47.083Z,40.00
2019-03-29T10:13:16.211Z,41.90
2019-03-29T10:15:45.407Z,40.70
2019-03-29T10:18:14.223Z,39.50
2019-03-29T10:20:43.313Z,40.10
2019-03-29T10:23:12.097Z,40.60
2019-03-29T10:25:40.845Z,39.40
2019-03-29T10:28:09.871Z,37.80
2019-03-29T10:30:40.821Z,38.00
2019-03-29T10:33:09.712Z,39.00
2019-03-29T10:35:50.875Z,38.10
2019-03-29T10:38:09.269Z,38.60
2019-03-29T10:40:38.333Z,39.20
2019-03-29T10:43:07.425Z,37.20
2019-03-29T10:45:40.084Z,38.60
2019-03-29T10:48:06.920Z,37.40
2019-03-29T10:50:36.045Z,37.30
2019-03-29T10:53:04.797Z,39.20
2019-03-29T10:55:34.028Z,38.40
2019-03-29T10:58:02.968Z,37.80
2019-03-29T11:00:34.155Z,36.70
2019-03-29T11:03:03.474Z,39.00
2019-03-29T11:05:32.263Z,38.80
2019-03-29T11:08:01.083Z,38.90
2019-03-29T11:10:37.623Z,36.40
2019-03-29T11:13:13.210Z,36.70
2019-03-29T11:15:38.066Z,39.20
2019-03-29T11:18:07.373Z,38.10
2019-03-29T11:20:36.144Z,36.50
2019-03-29T11:23:05.566Z,38.60
2019-03-29T11:25:34.392Z,39.40
2019-03-29T11:28:03.552Z,38.00
2019-03-29T11:30:41.966Z,37.30
2019-03-29T11:33:03.182Z,37.50
2019-03-29T11:35:32.383Z,37.90
2019-03-29T11:38:01.096Z,37.10
2019-03-29T11:40:30.167Z,38.70
2019-03-29T11:42:58.879Z,38.10
2019-03-29T11:45:28.150Z,38.60
2019-03-29T11:48:08.561Z,37.20
2019-03-29T11:50:29.302Z,38.20
2019-03-29T11:52:58.510Z,38.00
2019-03-29T11:55:27.603Z,36.90
2019-03-29T11:57:56.325Z,37.30
2019-03-29T12:00:28.470Z,37.40
2019-03-29T12:02:57.569Z,36.90
2019-03-29T12:05:26.651Z,36.90
2019-03-29T12:07:55.851Z,38.00
2019-03-29T12:10:24.955Z,34.80
2019-03-29T12:12:53.792Z,36.60
2019-03-29T12:15:23.045Z,38.20
2019-03-29T12:17:51.827Z,37.80
2019-03-29T12:20:21.033Z,36.90
2019-03-29T12:22:50.134Z,37.00
2019-03-29T12:25:19.318Z,36.40
2019-03-29T12:27:48.291Z,37.30
2019-03-29T12:30:31.297Z,37.10
2019-03-29T12:32:48.020Z,35.30
2019-03-29T12:35:17.145Z,36.70
2019-03-29T12:37:46.446Z,36.90
2019-03-29T12:40:15.339Z,38.20
2019-03-29T12:42:44.440Z,38.50
2019-03-29T12:45:13.633Z,37.60
2019-03-29T12:47:42.838Z,39.20
2019-03-29T12:50:11.837Z,36.90
2019-03-29T12:52:40.635Z,36.90
2019-03-29T12:55:09.556Z,38.40
2019-03-29T12:57:39.381Z,37.50
2019-03-29T13:00:09.508Z,36.60
2019-03-29T13:02:38.547Z,37.10
2019-03-29T13:05:08.049Z,36.30
2019-03-29T13:07:36.826Z,34.80
2019-03-29T13:10:25.393Z,35.50
2019-03-29T13:12:54.169Z,36.00
2019-03-29T13:15:23.291Z,37.60
2019-03-29T13:17:52.476Z,37.30
2019-03-29T13:20:21.730Z,37.00
2019-03-29T13:22:50.502Z,38.00
2019-03-29T13:25:19.675Z,38.20
2019-03-29T13:27:48.396Z,37.90
2019-03-29T13:30:17.859Z,37.60
2019-03-29T13:32:46.972Z,38.10
2019-03-29T13:35:16.248Z,39.30
2019-03-29T13:37:45.078Z,40.20
2019-03-29T13:40:13.989Z,41.60
2019-03-29T13:42:42.733Z,42.20
2019-03-29T13:45:11.960Z,42.10
2019-03-29T13:47:40.674Z,43.80
2019-03-29T13:50:11.221Z,42.60
2019-03-29T13:52:40.356Z,43.00
2019-03-29T13:55:09.563Z,42.70
2019-03-29T13:57:38.358Z,43.10
2019-03-29T14:00:12.757Z,43.70
2019-03-29T14:02:41.850Z,44.30
2019-03-29T14:05:10.731Z,43.20
2019-03-29T14:07:39.827Z,42.30
2019-03-29T14:10:09.246Z,42.20
2019-03-29T14:12:39.936Z,41.80
2019-03-29T14:15:10.709Z,42.50
2019-03-29T14:17:39.802Z,42.50
2019-03-29T14:20:11.563Z,42.30
2019-03-29T14:22:40.863Z,42.30
2019-03-29T14:25:10.272Z,43.20
2019-03-29T14:27:39.468Z,42.20
2019-03-29T14:30:09.695Z,42.10
2019-03-29T14:32:38.888Z,42.40
2019-03-29T14:35:08.834Z,40.60
2019-03-29T14:37:38.014Z,41.70
2019-03-29T14:40:08.539Z,42.40
2019-03-29T14:42:37.739Z,41.80
2019-03-29T14:45:08.893Z,41.70
2019-03-29T14:47:43.362Z,42.30
2019-03-29T14:50:09.847Z,43.70
2019-03-29T14:52:38.936Z,42.60
2019-03-29T14:55:08.039Z,43.00
2019-03-29T14:57:36.882Z,42.40
2019-03-29T15:00:08.402Z,43.50
2019-03-29T15:02:37.567Z,43.90
2019-03-29T15:05:08.063Z,43.30
2019-03-29T15:07:37.608Z,43.60
2019-03-29T15:10:09.366Z,43.20
2019-03-29T15:12:38.562Z,42.60
2019-03-29T15:15:07.975Z,43.00
2019-03-29T15:17:37.065Z,43.50
2019-03-29T15:20:07.691Z,44.00
2019-03-29T15:22:36.891Z,44.10
2019-03-29T15:25:06.404Z,44.80
2019-03-29T15:27:35.504Z,46.00
2019-03-29T15:30:06.967Z,45.30
2019-03-29T15:32:35.823Z,45.50
2019-03-29T15:35:05.529Z,46.70
2019-03-29T15:37:34.653Z,47.60
2019-03-29T15:40:03.892Z,48.50
2019-03-29T15:42:33.257Z,49.10
2019-03-29T15:45:02.356Z,49.80
2019-03-29T15:47:31.451Z,50.70
2019-03-29T15:50:00.656Z,49.70
2019-03-29T15:52:29.441Z,50.20
2019-03-29T15:54:58.259Z,51.50
2019-03-29T15:57:27.317Z,51.10
2019-03-29T15:59:56.033Z,51.00
2019-03-29T16:02:25.103Z,51.50
2019-03-29T16:04:53.813Z,52.90
2019-03-29T16:07:22.671Z,53.20
2019-03-29T16:09:51.445Z,53.20
2019-03-29T16:12:20.241Z,53.60
2019-03-29T16:14:49.358Z,54.50
2019-03-29T16:17:18.459Z,54.50
2019-03-29T16:19:47.286Z,54.50
2019-03-29T16:22:16.070Z,54.50
2019-03-29T16:24:45.135Z,55.30
2019-03-29T16:27:13.959Z,54.70
2019-03-29T16:29:42.676Z,55.20
2019-03-29T16:32:12.491Z,54.70
2019-03-29T16:34:41.515Z,55.20
2019-03-29T16:37:10.306Z,55.80
2019-03-29T16:39:39.065Z,55.40
2019-03-29T16:42:07.854Z,55.80
2019-03-29T16:44:36.879Z,55.90
2019-03-29T16:47:05.965Z,55.50
2019-03-29T16:49:34.791Z,56.30
2019-03-29T16:52:04.167Z,56.60
2019-03-29T16:54:33.144Z,57.80
2019-03-29T16:57:02.370Z,56.60
2019-03-29T16:59:31.083Z,56.70
2019-03-29T17:02:00.044Z,56.70
2019-03-29T17:04:29.245Z,57.30
2019-03-29T17:06:58.339Z,57.90
2019-03-29T17:09:27.137Z,57.10
2019-03-29T17:11:56.426Z,57.50
2019-03-29T17:14:25.218Z,57.70
2019-03-29T17:16:54.014Z,57.80
2019-03-29T17:19:22.847Z,58.60
2019-03-29T17:21:51.835Z,58.40
2019-03-29T18:14:26.657Z,62.30
2019-03-29T18:16:55.438Z,62.40
2019-03-29T18:19:24.566Z,62.00
2019-03-29T18:21:54.784Z,62.30
2019-03-29T18:24:23.878Z,63.10
2019-03-29T18:26:52.675Z,63.00
2019-03-29T18:29:21.499Z,63.30
2019-03-29T18:31:52.198Z,63.60
2019-03-29T18:34:21.299Z,64.40
2019-03-29T18:36:52.640Z,63.90
2019-03-29T18:39:22.764Z,65.50
2019-03-29T18:41:51.554Z,63.60
2019-03-29T18:44:20.382Z,64.20
2019-03-29T18:46:49.167Z,64.00
2019-03-29T18:49:18.334Z,66.60
2019-03-29T18:51:47.192Z,65.60
2019-03-29T18:54:15.958Z,66.30
2019-03-29T18:56:45.100Z,64.80
2019-03-29T18:59:13.919Z,66.80
2019-03-29T19:01:43.109Z,66.10
2019-03-29T19:04:11.932Z,66.60
2019-03-29T19:06:41.080Z,67.70
2019-03-29T19:09:09.875Z,67.40
2019-03-29T19:11:38.879Z,68.00
2019-03-29T19:14:07.599Z,67.70
2019-03-29T19:16:36.392Z,68.80
2019-03-29T19:19:10.360Z,69.90
2019-03-29T19:21:36.272Z,70.70
2019-03-29T19:24:05.372Z,70.70
2019-03-29T19:26:34.118Z,71.10
2019-03-29T19:29:03.255Z,71.40
2019-03-29T19:31:32.459Z,71.30
2019-03-29T19:34:01.277Z,72.00
2019-03-29T19:36:30.447Z,72.20
2019-03-29T19:38:59.643Z,72.00
2019-03-29T19:41:28.740Z,71.30
2019-03-29T19:43:57.528Z,72.00
2019-03-29T19:46:26.357Z,71.50
2019-03-29T19:48:55.152Z,71.60
2019-03-29T19:51:24.316Z,72.30
2019-03-29T19:54:06.403Z,73.60
2019-03-29T19:56:23.634Z,73.60
2019-03-29T19:58:52.739Z,74.40
2019-03-29T20:01:21.946Z,73.90
2019-03-29T20:03:51.129Z,74.10
2019-03-29T20:06:20.227Z,75.60
2019-03-29T20:08:49.013Z,76.10
2019-03-29T20:11:18.095Z,74.40
2019-03-29T20:13:47.217Z,74.90
2019-03-29T20:16:16.299Z,75.10
2019-03-29T20:18:45.509Z,75.60
2019-03-29T20:21:14.312Z,76.00
2019-03-29T20:23:43.404Z,76.20
2019-03-29T20:26:12.154Z,76.90
2019-03-29T20:28:41.257Z,77.50
2019-03-29T20:31:10.048Z,77.60
2019-03-29T20:33:38.906Z,77.70
2019-03-29T20:36:09.077Z,76.60
2019-03-29T20:38:38.187Z,77.00
2019-03-29T20:41:06.952Z,77.20
2019-03-29T20:43:35.733Z,77.20
2019-03-29T20:46:04.647Z,76.30
2019-03-29T20:48:33.466Z,76.30
2019-03-29T20:51:02.629Z,76.30
2019-03-29T20:53:31.732Z,77.00
2019-03-29T20:56:00.517Z,77.60
2019-03-29T20:58:29.709Z,76.70
2019-03-29T21:00:58.513Z,77.70
2019-03-29T21:03:27.358Z,77.60
2019-03-29T21:05:56.490Z,77.30
2019-03-29T21:08:25.688Z,77.30
2019-03-29T21:10:56.519Z,77.50
2019-03-29T21:13:25.241Z,77.10
2019-03-29T21:15:54.416Z,77.40
2019-03-29T21:18:23.126Z,78.00
2019-03-29T21:20:52.297Z,77.90
2019-03-29T21:23:21.499Z,78.00
2019-03-29T21:25:50.217Z,78.90
2019-03-29T21:28:18.948Z,78.20
2019-03-29T21:30:48.071Z,78.10
2019-03-29T21:33:16.860Z,78.50
2019-03-29T21:35:45.955Z,78.50
2019-03-29T21:38:15.152Z,79.30
2019-03-29T21:40:44.261Z,78.90
2019-03-29T21:43:13.038Z,80.20
2019-03-29T21:45:43.455Z,78.50
2019-03-29T21:48:28.691Z,79.30
2019-03-29T21:50:48.391Z,79.20
2019-03-29T21:53:29.607Z,79.30
2019-03-29T21:55:58.799Z,80.60
2019-03-29T21:58:33.158Z,80.30
2019-03-29T22:01:02.315Z,79.90
2019-03-29T22:03:31.410Z,79.70
2019-03-29T22:06:00.197Z,79.50
2019-03-29T22:08:29.020Z,79.50
2019-03-29T22:10:58.195Z,79.80
2019-03-29T22:13:26.934Z,80.40
2019-03-29T22:15:56.070Z,80.70
2019-03-29T22:18:37.380Z,81.50
2019-03-29T22:20:55.708Z,80.00
2019-03-29T22:23:24.933Z,80.80
2019-03-29T22:25:53.711Z,80.70
2019-03-29T22:28:22.786Z,80.70
2019-03-29T22:30:51.887Z,80.70
2019-03-29T22:33:20.976Z,80.20
2019-03-29T22:35:49.776Z,80.20
2019-03-29T22:38:18.589Z,80.50
2019-03-29T22:40:47.865Z,80.00
2019-03-29T22:43:17.267Z,79.90
2019-03-29T22:45:47.795Z,80.30
2019-03-29T22:48:16.614Z,80.50
2019-03-29T22:50:45.394Z,80.20
2019-03-29T22:53:14.200Z,80.20
2019-03-29T22:55:42.920Z,80.80
2019-03-29T22:58:11.705Z,80.10
2019-03-29T23:00:44.153Z,80.20
2019-03-29T23:03:13.313Z,80.30
2019-03-29T23:05:42.101Z,80.30
2019-03-29T23:08:10.923Z,80.00
2019-03-29T23:10:40.091Z,80.00
2019-03-29T23:13:09.185Z,79.80
2019-03-29T23:15:38.396Z,80.00
2019-03-29T23:18:07.478Z,79.90
2019-03-29T23:20:36.581Z,79.40
2019-03-29T23:23:05.788Z,79.30
2019-03-29T23:25:34.497Z,78.90
2019-03-29T23:28:03.299Z,78.90
2019-03-29T23:30:32.110Z,78.50
2019-03-29T23:33:01.237Z,78.40
2019-03-29T23:35:30.352Z,78.40
2019-03-29T23:38:02.393Z,78.20
2019-03-29T23:40:31.501Z,78.50
2019-03-29T23:43:02.130Z,78.60
2019-03-29T23:45:30.971Z,78.70
2019-03-29T23:48:00.134Z,78.70
2019-03-29T23:50:29.223Z,78.90
2019-03-29T23:52:58.308Z,78.90
2019-03-29T23:55:27.031Z,79.30
2019-03-29T23:57:56.112Z,78.90
